SVA1114 OEJN-OEDF
Flight info
| Callsign | SVA1114 |
|---|---|
| Flight time | N/A |
| Altitude | 37000 |
| Route | EGREP T532 KSA H976 MUSRI L604 UMENA |
| Aircraft | A320/M-SDE3FGHIRWY/LB1 |
Departure
| Time | N/A |
|---|---|
| Airport | King Abdulaziz International Airport (OEJN) |
Arrival
| Time | 2026-05-09 09:54 |
|---|---|
| Airport | King Fahd International Airport (OEDF) |
| Time | Latitude | Longitude | Altitude | Speed | Heading |
|---|---|---|---|---|---|
| 2026-05-09 09:25 | 25.89382 | 47.38629 | 35156 ft | 538 kts | 31° |
| 2026-05-09 09:25 | 25.92429 | 47.41049 | 34506 ft | 539 kts | 31° |
| 2026-05-09 09:25 | 25.95492 | 47.43485 | 33728 ft | 542 kts | 31° |
| 2026-05-09 09:26 | 25.98543 | 47.45912 | 33206 ft | 537 kts | 31° |
| 2026-05-09 09:26 | 26.01560 | 47.48312 | 32738 ft | 529 kts | 31° |
| 2026-05-09 09:26 | 26.04540 | 47.50687 | 32315 ft | 522 kts | 31° |
| 2026-05-09 09:26 | 26.07467 | 47.53016 | 31896 ft | 515 kts | 31° |
| 2026-05-09 09:27 | 26.10355 | 47.55313 | 31464 ft | 507 kts | 31° |
| 2026-05-09 09:27 | 26.13213 | 47.57586 | 31063 ft | 500 kts | 32° |
| 2026-05-09 09:27 | 26.16024 | 47.59824 | 30658 ft | 493 kts | 32° |
| 2026-05-09 09:27 | 26.18803 | 47.62037 | 30216 ft | 488 kts | 32° |
| 2026-05-09 09:28 | 26.21542 | 47.64219 | 29758 ft | 482 kts | 32° |
| 2026-05-09 09:28 | 26.24175 | 47.66510 | 29290 ft | 478 kts | 40° |
| 2026-05-09 09:28 | 26.26393 | 47.69263 | 28850 ft | 475 kts | 52° |
| 2026-05-09 09:28 | 26.28101 | 47.72380 | 28405 ft | 470 kts | 64° |
| 2026-05-09 09:29 | 26.29262 | 47.75750 | 27942 ft | 465 kts | 75° |
| 2026-05-09 09:29 | 26.30007 | 47.79249 | 27461 ft | 460 kts | 77° |
| 2026-05-09 09:29 | 26.30712 | 47.82699 | 26971 ft | 455 kts | 77° |
| 2026-05-09 09:29 | 26.31408 | 47.86123 | 26497 ft | 450 kts | 77° |
| 2026-05-09 09:30 | 26.32104 | 47.89536 | 25448 ft | 459 kts | 76° |
| 2026-05-09 09:30 | 26.32827 | 47.93081 | 23943 ft | 479 kts | 75° |
| 2026-05-09 09:30 | 26.33562 | 47.96692 | 22612 ft | 490 kts | 75° |
| 2026-05-09 09:30 | 26.34316 | 48.00413 | 21573 ft | 491 kts | 76° |
| 2026-05-09 09:31 | 26.35061 | 48.04111 | 20749 ft | 488 kts | 76° |
| 2026-05-09 09:31 | 26.35313 | 48.05362 | 20487 ft | 486 kts | 76° |
| 2026-05-09 09:32 | 26.38108 | 48.19184 | 17748 ft | 469 kts | 76° |
| 2026-05-09 09:32 | 26.38824 | 48.22716 | 17191 ft | 461 kts | 76° |
| 2026-05-09 09:32 | 26.39513 | 48.26129 | 16988 ft | 444 kts | 76° |
| 2026-05-09 09:32 | 26.40170 | 48.29416 | 17006 ft | 424 kts | 76° |
| 2026-05-09 09:33 | 26.40795 | 48.32555 | 17002 ft | 405 kts | 76° |
| 2026-05-09 09:33 | 26.41397 | 48.35571 | 17006 ft | 389 kts | 76° |
| 2026-05-09 09:33 | 26.41981 | 48.38479 | 17005 ft | 382 kts | 76° |
| 2026-05-09 09:33 | 26.42556 | 48.41329 | 16998 ft | 380 kts | 76° |
| 2026-05-09 09:34 | 26.43134 | 48.44200 | 17005 ft | 380 kts | 76° |
| 2026-05-09 09:34 | 26.43715 | 48.47096 | 16997 ft | 381 kts | 76° |
| 2026-05-09 09:34 | 26.44289 | 48.49974 | 16999 ft | 381 kts | 76° |
| 2026-05-09 09:36 | 26.47225 | 48.69365 | 16986 ft | 384 kts | 96° |
| 2026-05-09 09:36 | 26.46759 | 48.73320 | 16190 ft | 395 kts | 97° |
| 2026-05-09 09:36 | 26.46399 | 48.76421 | 15163 ft | 409 kts | 97° |
| 2026-05-09 09:37 | 26.46151 | 48.78579 | 14445 ft | 418 kts | 96° |
| 2026-05-09 09:37 | 26.45784 | 48.81804 | 13334 ft | 431 kts | 96° |
| 2026-05-09 09:37 | 26.45405 | 48.85144 | 12388 ft | 434 kts | 96° |
| 2026-05-09 09:37 | 26.45018 | 48.88522 | 11645 ft | 431 kts | 96° |
| 2026-05-09 09:38 | 26.44634 | 48.91813 | 11188 ft | 421 kts | 97° |
| 2026-05-09 09:38 | 26.44259 | 48.94991 | 11018 ft | 404 kts | 97° |
| 2026-05-09 09:38 | 26.43900 | 48.98020 | 11028 ft | 383 kts | 97° |
| 2026-05-09 09:38 | 26.43567 | 49.00852 | 11034 ft | 364 kts | 96° |
| 2026-05-09 09:39 | 26.43245 | 49.03597 | 11036 ft | 352 kts | 96° |
| 2026-05-09 09:39 | 26.42931 | 49.06287 | 11036 ft | 348 kts | 96° |
| 2026-05-09 09:39 | 26.42888 | 49.06655 | 11037 ft | 348 kts | 96° |
| 2026-05-09 09:39 | 26.42739 | 49.07924 | 11041 ft | 348 kts | 96° |
| 2026-05-09 09:40 | 26.42424 | 49.10602 | 11029 ft | 349 kts | 97° |
| 2026-05-09 09:40 | 26.42107 | 49.13291 | 11031 ft | 349 kts | 97° |
| 2026-05-09 09:40 | 26.41792 | 49.15969 | 11030 ft | 349 kts | 96° |
| 2026-05-09 09:40 | 26.41769 | 49.16171 | 11029 ft | 349 kts | 96° |
| 2026-05-09 09:41 | 26.41704 | 49.16718 | 11026 ft | 349 kts | 96° |
| 2026-05-09 09:41 | 26.41394 | 49.19339 | 11025 ft | 349 kts | 96° |
| 2026-05-09 09:41 | 26.41076 | 49.22041 | 11026 ft | 349 kts | 96° |
| 2026-05-09 09:42 | 26.40759 | 49.24738 | 11024 ft | 349 kts | 96° |
| 2026-05-09 09:42 | 26.40440 | 49.27423 | 10845 ft | 353 kts | 97° |
| 2026-05-09 09:42 | 26.40114 | 49.30157 | 9724 ft | 360 kts | 97° |
| 2026-05-09 09:42 | 26.39781 | 49.32968 | 8292 ft | 371 kts | 97° |
| 2026-05-09 09:43 | 26.39430 | 49.35856 | 6809 ft | 381 kts | 99° |
| 2026-05-09 09:43 | 26.38780 | 49.38704 | 5878 ft | 372 kts | 104° |
| 2026-05-09 09:43 | 26.38103 | 49.41415 | 5447 ft | 352 kts | 104° |
| 2026-05-09 09:43 | 26.37459 | 49.43997 | 5238 ft | 339 kts | 104° |
| 2026-05-09 09:44 | 26.36842 | 49.46472 | 5097 ft | 325 kts | 104° |
| 2026-05-09 09:44 | 26.36248 | 49.48846 | 4998 ft | 309 kts | 103° |
| 2026-05-09 09:44 | 26.35687 | 49.51085 | 5009 ft | 290 kts | 104° |
| 2026-05-09 09:44 | 26.35168 | 49.53161 | 5008 ft | 273 kts | 103° |
| 2026-05-09 09:45 | 26.34683 | 49.55098 | 5004 ft | 256 kts | 103° |
| 2026-05-09 09:45 | 26.34218 | 49.56950 | 5003 ft | 239 kts | 103° |
| 2026-05-09 09:45 | 26.33779 | 49.58698 | 5004 ft | 232 kts | 103° |
| 2026-05-09 09:45 | 26.33347 | 49.60426 | 5003 ft | 231 kts | 102° |
| 2026-05-09 09:46 | 26.32915 | 49.62155 | 4998 ft | 231 kts | 102° |
| 2026-05-09 09:46 | 26.32483 | 49.63889 | 5002 ft | 234 kts | 102° |
| 2026-05-09 09:46 | 26.32049 | 49.65624 | 4998 ft | 232 kts | 102° |
| 2026-05-09 09:46 | 26.31614 | 49.67350 | 5032 ft | 231 kts | 104° |
| 2026-05-09 09:47 | 26.31178 | 49.69077 | 5012 ft | 232 kts | 103° |
| 2026-05-09 09:47 | 26.30743 | 49.70812 | 5003 ft | 232 kts | 103° |
| 2026-05-09 09:47 | 26.30304 | 49.72556 | 4640 ft | 236 kts | 103° |
| 2026-05-09 09:47 | 26.29862 | 49.74311 | 4190 ft | 235 kts | 102° |
| 2026-05-09 09:48 | 26.29421 | 49.76052 | 3817 ft | 230 kts | 102° |
| 2026-05-09 09:48 | 26.28992 | 49.77739 | 3340 ft | 224 kts | 103° |
| 2026-05-09 09:48 | 26.28571 | 49.79397 | 2899 ft | 220 kts | 99° |
| 2026-05-09 09:48 | 26.28268 | 49.80967 | 2771 ft | 194 kts | 84° |
| 2026-05-09 09:49 | 26.28545 | 49.82286 | 2286 ft | 189 kts | 55° |
| 2026-05-09 09:49 | 26.29428 | 49.83276 | 2037 ft | 172 kts | 27° |
| 2026-05-09 09:49 | 26.30488 | 49.83645 | 1995 ft | 151 kts | 3° |
| 2026-05-09 09:49 | 26.31478 | 49.83500 | 1997 ft | 141 kts | 347° |
| 2026-05-09 09:50 | 26.32398 | 49.83216 | 1994 ft | 133 kts | 347° |
| 2026-05-09 09:50 | 26.33294 | 49.82942 | 2010 ft | 132 kts | 345° |
| 2026-05-09 09:50 | 26.34167 | 49.82674 | 1997 ft | 126 kts | 346° |
| 2026-05-09 09:50 | 26.35006 | 49.82400 | 1944 ft | 126 kts | 344° |
| 2026-05-09 09:51 | 26.35833 | 49.82106 | 1868 ft | 124 kts | 347° |
| 2026-05-09 09:51 | 26.36660 | 49.81856 | 1786 ft | 124 kts | 347° |
| 2026-05-09 09:51 | 26.37481 | 49.81616 | 1690 ft | 122 kts | 347° |
| 2026-05-09 09:51 | 26.38331 | 49.81363 | 1542 ft | 126 kts | 348° |
| 2026-05-09 09:52 | 26.39126 | 49.81124 | 1423 ft | 125 kts | 346° |
| 2026-05-09 09:52 | 26.39929 | 49.80857 | 1375 ft | 120 kts | 345° |
| 2026-05-09 09:52 | 26.40729 | 49.80565 | 1343 ft | 122 kts | 344° |
| 2026-05-09 09:52 | 26.41553 | 49.80334 | 1141 ft | 121 kts | 349° |
| 2026-05-09 09:53 | 26.42382 | 49.80101 | 898 ft | 123 kts | 348° |
| 2026-05-09 09:53 | 26.43226 | 49.79879 | 712 ft | 126 kts | 346° |
| 2026-05-09 09:53 | 26.44090 | 49.79592 | 509 ft | 129 kts | 345° |
| 2026-05-09 09:53 | 26.44964 | 49.79336 | 251 ft | 127 kts | 346° |
| 2026-05-09 09:54 | 26.45805 | 49.79083 | 91 ft | 120 kts | 347° |
| 2026-05-09 09:54 | 26.46344 | 49.78936 | 90 ft | 38 kts | 342° |
| 2026-05-09 09:54 | 26.46424 | 49.78906 | 91 ft | 11 kts | 341° |
| 2026-05-09 09:54 | 26.46507 | 49.78875 | 87 ft | 14 kts | 341° |
| 2026-05-09 09:55 | 26.46580 | 49.78875 | 86 ft | 11 kts | 23° |
| 2026-05-09 09:55 | 26.46558 | 49.78945 | 90 ft | 12 kts | 134° |
| 2026-05-09 09:55 | 26.46494 | 49.79017 | 89 ft | 14 kts | 136° |
| 2026-05-09 09:55 | 26.46422 | 49.79100 | 87 ft | 16 kts | 131° |
| 2026-05-09 09:56 | 26.46401 | 49.79153 | 85 ft | 6 kts | 96° |
| 2026-05-09 09:56 | 26.46405 | 49.79215 | 85 ft | 3 kts | 81° |
| 2026-05-09 09:56 | 26.46407 | 49.79228 | 85 ft | 3 kts | 78° |
| 2026-05-09 09:56 | 26.46415 | 49.79264 | 86 ft | 6 kts | 75° |
| 2026-05-09 09:57 | 26.46431 | 49.79325 | 87 ft | 10 kts | 74° |
| 2026-05-09 09:57 | 26.46456 | 49.79410 | 89 ft | 13 kts | 69° |
| 2026-05-09 09:57 | 26.46490 | 49.79477 | 89 ft | 11 kts | 38° |
| 2026-05-09 09:57 | 26.46511 | 49.79493 | 88 ft | 2 kts | 35° |
| 2026-05-09 09:58 | 26.46527 | 49.79510 | 89 ft | 4 kts | 51° |
| 2026-05-09 09:58 | 26.46536 | 49.79544 | 85 ft | 1 kts | 81° |
| 2026-05-09 09:58 | 26.46537 | 49.79558 | 87 ft | 3 kts | 87° |
| 2026-05-09 09:58 | 26.46538 | 49.79565 | 85 ft | 0 kts | 86° |